Time;durP1;ratioP1;P1;durP2;ratioP2;P2;SDS_P1;SDS_P2;PMS_P1;PMS_P2;Temp;Humidity;BMP_temperature;BMP_pressure;BME280_temperature;BME280_humidity;BME280_pressure;Samples;Min_cycle;Max_cycle;Signal;HPM_P1;HPM_P2
2023/07/12 00:00:17;;;;;;;18.27;3.10;;;19.00;99.90;;;;;;5023019;28;37211;-78
2023/07/12 00:02:43;;;;;;;19.02;3.55;;;19.00;99.90;;;;;;5021025;28;48025;-79
2023/07/12 00:05:09;;;;;;;13.43;3.17;;;18.90;99.90;;;;;;5020722;28;39614;-79
2023/07/12 00:07:36;;;;;;;16.98;3.47;;;18.70;99.90;;;;;;5021270;28;38346;-78
2023/07/12 00:10:02;;;;;;;13.02;3.13;;;18.50;99.90;;;;;;5027245;28;37324;-78
2023/07/12 00:12:28;;;;;;;12.27;2.85;;;18.30;99.90;;;;;;5015135;28;39508;-77
2023/07/12 00:14:54;;;;;;;16.27;3.35;;;18.10;99.90;;;;;;5020534;28;38240;-77
2023/07/12 00:17:21;;;;;;;17.80;4.07;;;17.90;99.90;;;;;;5012352;28;36792;-77
2023/07/12 00:19:47;;;;;;;18.30;3.92;;;17.80;99.90;;;;;;5025353;28;37244;-77
2023/07/12 00:22:13;;;;;;;14.13;4.10;;;17.70;99.90;;;;;;5012506;28;39803;-78
2023/07/12 00:24:40;;;;;;;16.48;3.67;;;17.60;99.90;;;;;;5014665;28;37321;-77
2023/07/12 00:27:09;;;;;;;13.00;3.40;;;17.60;99.90;;;;;;5025107;28;38918;-77
2023/07/12 00:29:35;;;;;;;17.73;3.72;;;17.60;99.90;;;;;;5027728;28;37563;-78
2023/07/12 00:32:01;;;;;;;22.35;4.88;;;17.50;99.90;;;;;;5025438;28;38730;-77
2023/07/12 00:34:27;;;;;;;17.58;4.50;;;17.50;99.90;;;;;;5025028;28;47245;-77
2023/07/12 00:36:53;;;;;;;13.18;3.80;;;17.60;99.90;;;;;;5021553;28;37728;-77
2023/07/12 00:39:20;;;;;;;16.40;4.20;;;17.50;99.90;;;;;;5019134;28;37814;-77
2023/07/12 00:42:04;;;;;;;21.10;4.60;;;17.40;99.90;;;;;;5019070;28;38180;-77
2023/07/12 00:44:39;;;;;;;13.05;3.80;;;17.30;99.90;;;;;;5007958;28;47316;-78
2023/07/12 00:47:05;;;;;;;14.77;3.92;;;17.30;99.90;;;;;;5018316;28;39010;-78
2023/07/12 00:49:31;;;;;;;12.50;3.90;;;17.20;99.90;;;;;;5013753;28;37489;-78
2023/07/12 00:52:00;;;;;;;17.92;4.10;;;17.20;99.90;;;;;;5014223;28;37818;-79
2023/07/12 00:54:56;;;;;;;17.77;4.65;;;17.20;99.90;;;;;;5017986;28;38417;-78
2023/07/12 00:57:24;;;;;;;18.17;4.28;;;17.10;99.90;;;;;;5022678;28;37939;-78
2023/07/12 01:00:10;;;;;;;19.60;4.50;;;17.10;99.90;;;;;;5019209;28;37161;-78
2023/07/12 01:02:41;;;;;;;15.70;4.13;;;17.10;99.90;;;;;;5460258;22;37694;-78
2023/07/12 01:05:08;;;;;;;20.58;4.22;;;17.10;99.90;;;;;;5038925;28;37945;-78
2023/07/12 01:07:34;;;;;;;16.05;4.18;;;17.10;99.90;;;;;;5045909;28;37654;-78
2023/07/12 01:10:01;;;;;;;16.48;4.00;;;17.10;99.90;;;;;;5047497;28;37007;-78
2023/07/12 01:12:27;;;;;;;15.70;4.38;;;17.10;99.90;;;;;;5032676;28;41804;-78
2023/07/12 01:14:53;;;;;;;17.50;3.95;;;17.10;99.90;;;;;;5032079;28;38740;-78
2023/07/12 01:17:21;;;;;;;15.13;3.47;;;17.00;99.90;;;;;;5048076;28;38727;-78
2023/07/12 01:19:47;;;;;;;18.70;4.38;;;17.00;99.90;;;;;;5049331;28;36074;-77
2023/07/12 01:22:13;;;;;;;20.25;5.00;;;17.00;99.90;;;;;;5035314;28;37450;-78
2023/07/12 01:24:39;;;;;;;16.98;4.35;;;17.00;99.90;;;;;;5036173;28;38113;-78
2023/07/12 01:27:26;;;;;;;23.92;4.88;;;17.10;99.90;;;;;;5050785;28;36889;-79
2023/07/12 01:29:52;;;;;;;13.35;3.90;;;17.10;99.90;;;;;;5044424;28;36015;-79
2023/07/12 01:32:19;;;;;;;16.80;3.42;;;17.00;99.90;;;;;;5052769;28;39111;-79
2023/07/12 01:34:45;;;;;;;12.10;3.47;;;16.90;99.90;;;;;;5052836;28;39207;-79
2023/07/12 01:37:12;;;;;;;17.50;3.88;;;16.90;99.90;;;;;;5042154;28;38318;-79
2023/07/12 01:39:39;;;;;;;12.13;2.88;;;16.80;99.90;;;;;;5052770;28;36137;-78
2023/07/12 01:42:05;;;;;;;10.88;3.13;;;16.80;99.90;;;;;;5048084;28;38381;-80
2023/07/12 01:44:31;;;;;;;14.02;3.47;;;16.90;99.90;;;;;;5038503;28;38208;-79
2023/07/12 01:46:57;;;;;;;13.50;3.17;;;16.80;99.90;;;;;;5038920;28;37933;-79
2023/07/12 01:49:23;;;;;;;13.05;3.13;;;16.80;99.90;;;;;;5036239;28;37498;-79
2023/07/12 01:51:50;;;;;;;17.90;4.25;;;16.80;99.90;;;;;;5046325;28;37999;-79
2023/07/12 01:54:16;;;;;;;12.85;3.42;;;16.80;99.90;;;;;;5049187;28;38386;-79
2023/07/12 01:56:42;;;;;;;13.90;3.50;;;16.80;99.90;;;;;;5052069;28;37772;-80
2023/07/12 01:59:08;;;;;;;13.02;5.18;;;16.90;99.90;;;;;;5036909;28;37297;-80
2023/07/12 02:01:34;;;;;;;19.17;5.68;;;16.80;99.90;;;;;;5038786;28;38471;-79
2023/07/12 02:04:01;;;;;;;14.70;5.97;;;16.70;99.90;;;;;;5036980;28;38147;-80
2023/07/12 02:06:27;;;;;;;15.77;6.20;;;16.70;99.90;;;;;;5043515;28;47246;-80
2023/07/12 02:08:53;;;;;;;22.65;6.10;;;16.70;99.90;;;;;;5045246;28;36035;-79
2023/07/12 02:11:19;;;;;;;20.02;6.32;;;16.60;99.90;;;;;;5066019;28;38469;-81
2023/07/12 02:13:46;;;;;;;20.70;5.35;;;16.60;99.90;;;;;;5068343;28;38432;-80
2023/07/12 02:16:14;;;;;;;13.32;5.05;;;16.70;99.90;;;;;;5046295;28;38277;-79
2023/07/12 02:18:40;;;;;;;14.27;6.07;;;16.70;99.90;;;;;;5040275;28;36895;-79
2023/07/12 02:21:06;;;;;;;17.40;5.57;;;16.70;99.90;;;;;;5040671;28;37568;-79
2023/07/12 02:23:32;;;;;;;13.32;5.15;;;16.70;99.90;;;;;;5047752;28;38918;-79
2023/07/12 02:25:58;;;;;;;16.50;4.78;;;16.70;99.90;;;;;;5072779;28;36747;-79
2023/07/12 02:28:26;;;;;;;16.13;4.82;;;16.60;99.90;;;;;;5047755;28;37529;-79
2023/07/12 02:30:52;;;;;;;16.13;4.80;;;16.70;99.90;;;;;;5069516;28;38170;-79
2023/07/12 02:33:37;;;;;;;16.80;5.30;;;16.70;99.90;;;;;;5069531;28;38335;-80
2023/07/12 02:36:05;;;;;;;14.15;4.72;;;16.60;99.90;;;;;;5056317;28;39662;-80
2023/07/12 02:38:32;;;;;;;15.57;4.93;;;16.60;99.90;;;;;;5063444;28;36861;-80
2023/07/12 02:40:58;;;;;;;13.40;4.53;;;16.60;99.90;;;;;;5055489;28;38897;-79
2023/07/12 02:43:26;;;;;;;12.70;4.38;;;16.60;99.90;;;;;;5068653;28;40085;-79
2023/07/12 02:45:58;;;;;;;15.23;4.82;;;16.60;99.90;;;;;;5055612;28;38667;-80
2023/07/12 02:48:26;;;;;;;11.43;4.25;;;16.50;99.90;;;;;;5070298;28;36692;-79
2023/07/12 02:50:52;;;;;;;18.17;4.82;;;16.50;99.90;;;;;;5067598;28;38397;-79
2023/07/12 02:53:45;;;;;;;16.27;5.55;;;16.50;99.90;;;;;;5063636;28;37793;-79
2023/07/12 02:56:15;;;;;;;16.63;5.65;;;16.50;99.90;;;;;;5033938;28;39549;-80
2023/07/12 02:59:03;;;;;;;16.05;5.22;;;16.50;99.90;;;;;;5050914;28;37984;-79
2023/07/12 03:01:50;;;;;;;13.05;5.85;;;16.50;99.90;;;;;;5049068;28;48617;-79
2023/07/12 03:04:18;;;;;;;14.10;5.22;;;16.60;99.90;;;;;;5060309;28;38896;-80
2023/07/12 03:06:46;;;;;;;15.70;5.38;;;16.50;99.90;;;;;;5054661;28;37303;-79
2023/07/12 03:09:13;;;;;;;14.65;6.10;;;16.50;99.90;;;;;;5046319;28;37761;-79
2023/07/12 03:11:58;;;;;;;17.60;6.20;;;16.60;99.90;;;;;;5048943;28;39294;-80
2023/07/12 03:14:31;;;;;;;16.20;5.50;;;16.60;99.90;;;;;;5050528;28;48315;-79
2023/07/12 03:17:02;;;;;;;19.92;6.55;;;16.60;99.90;;;;;;5071910;28;38037;-80
2023/07/12 03:19:40;;;;;;;16.15;6.10;;;16.60;99.90;;;;;;5058655;28;49356;-80
2023/07/12 03:22:15;;;;;;;22.30;5.63;;;16.60;99.90;;;;;;5067250;28;39307;-81
2023/07/12 03:24:44;;;;;;;15.10;6.03;;;16.60;99.90;;;;;;5049417;28;39114;-81
2023/07/12 03:27:37;;;;;;;17.02;6.13;;;16.70;99.90;;;;;;5038882;28;39509;-79
2023/07/12 03:30:08;;;;;;;15.43;6.35;;;16.70;99.90;;;;;;5038808;28;38675;-80
2023/07/12 03:32:36;;;;;;;13.70;6.55;;;16.60;99.90;;;;;;5062875;28;38979;-79
2023/07/12 03:35:08;;;;;;;15.13;6.55;;;16.70;99.90;;;;;;5043991;28;39151;-79
2023/07/12 03:37:35;;;;;;;18.50;6.45;;;16.70;99.90;;;;;;5052491;28;48172;-80
2023/07/12 03:40:03;;;;;;;17.30;6.78;;;16.60;99.90;;;;;;5064325;28;36672;-79
2023/07/12 03:42:37;;;;;;;23.63;7.30;;;16.60;99.90;;;;;;5053260;28;38964;-80
2023/07/12 03:45:07;;;;;;;19.33;7.28;;;16.60;99.90;;;;;;5063661;28;38831;-80
2023/07/12 03:47:33;;;;;;;15.13;7.15;;;16.60;99.90;;;;;;5064593;28;48325;-80
2023/07/12 03:50:00;;;;;;;21.50;6.97;;;16.60;99.90;;;;;;5053632;28;36974;-80
2023/07/12 03:52:42;;;;;;;21.92;6.85;;;16.60;99.90;;;;;;5051533;28;49067;-78
2023/07/12 03:55:15;;;;;;;16.58;6.32;;;16.50;99.90;;;;;;5066291;28;37915;-80
2023/07/12 03:57:49;;;;;;;21.83;7.35;;;16.50;99.90;;;;;;5066139;28;37805;-80
2023/07/12 04:00:22;;;;;;;19.77;6.95;;;16.50;99.90;;;;;;5055624;28;37539;-80
2023/07/12 04:02:48;;;;;;;13.25;6.45;;;16.50;99.90;;;;;;5037766;28;39308;-80
2023/07/12 04:05:17;;;;;;;18.98;6.93;;;16.50;99.90;;;;;;5077282;28;38335;-80
2023/07/12 04:07:52;;;;;;;18.02;7.18;;;16.60;99.90;;;;;;5064398;28;37730;-80
2023/07/12 04:10:20;;;;;;;17.02;7.45;;;16.50;99.90;;;;;;5061883;28;20049;-80
2023/07/12 04:12:46;;;;;;;20.40;8.15;;;16.50;99.90;;;;;;5053459;28;40118;-79
2023/07/12 04:15:13;;;;;;;18.83;7.38;;;16.50;99.90;;;;;;5055698;28;38837;-80
2023/07/12 04:17:40;;;;;;;18.40;7.72;;;16.50;99.90;;;;;;5054999;28;40674;-80
2023/07/12 04:20:16;;;;;;;14.77;7.35;;;16.60;99.90;;;;;;5053034;28;38089;-80
2023/07/12 04:22:52;;;;;;;19.90;8.50;;;16.60;99.90;;;;;;5067892;28;37478;-81
2023/07/12 04:25:21;;;;;;;18.05;7.47;;;16.60;99.90;;;;;;5068438;28;39763;-80
2023/07/12 04:27:49;;;;;;;17.73;7.55;;;16.60;99.90;;;;;;5058875;28;38785;-80
2023/07/12 04:30:16;;;;;;;23.85;7.93;;;16.60;99.90;;;;;;5063181;28;36677;-80
2023/07/12 04:32:43;;;;;;;17.33;7.30;;;16.60;99.90;;;;;;5048172;28;39373;-80
2023/07/12 04:35:11;;;;;;;21.92;7.18;;;16.60;99.90;;;;;;5053603;28;39377;-80
2023/07/12 04:37:38;;;;;;;15.98;6.70;;;16.70;99.90;;;;;;5050067;28;36829;-79
2023/07/12 04:40:10;;;;;;;15.25;6.57;;;16.60;99.90;;;;;;5051304;28;38667;-79
2023/07/12 04:42:37;;;;;;;15.55;6.43;;;16.70;99.90;;;;;;5044374;28;40179;-79
2023/07/12 04:45:04;;;;;;;19.10;6.78;;;16.70;99.90;;;;;;5045288;28;39050;-79
2023/07/12 04:47:31;;;;;;;19.88;6.40;;;16.70;99.90;;;;;;5048429;28;39292;-79
2023/07/12 04:49:57;;;;;;;12.52;5.85;;;16.70;99.90;;;;;;5046130;28;37739;-79
2023/07/12 04:52:25;;;;;;;15.80;6.30;;;16.70;99.90;;;;;;5061664;28;38005;-79
2023/07/12 04:54:57;;;;;;;17.95;6.65;;;16.70;99.90;;;;;;5059767;28;37479;-79
2023/07/12 04:57:44;;;;;;;17.48;7.13;;;16.80;99.90;;;;;;5050075;28;38892;-79
2023/07/12 05:00:46;;;;;;;18.98;7.10;;;16.70;99.90;;;;;;5054757;28;38850;-80
2023/07/12 05:03:12;;;;;;;14.48;6.63;;;16.70;99.90;;;;;;5037917;22;37874;-76
2023/07/12 05:05:39;;;;;;;24.45;8.02;;;16.70;99.90;;;;;;5042179;28;38525;-76
2023/07/12 05:08:05;;;;;;;21.15;8.35;;;16.80;99.90;;;;;;5030791;28;38641;-76
2023/07/12 05:10:33;;;;;;;19.52;8.20;;;16.70;99.90;;;;;;5045344;28;38994;-77
2023/07/12 05:12:59;;;;;;;19.65;7.70;;;16.70;99.90;;;;;;5029965;28;38720;-77
2023/07/12 05:15:25;;;;;;;19.45;8.75;;;16.70;99.90;;;;;;5043826;28;39839;-76
2023/07/12 05:17:51;;;;;;;23.70;7.97;;;16.70;99.90;;;;;;5030139;28;38007;-76
2023/07/12 05:20:18;;;;;;;21.10;7.47;;;16.70;99.90;;;;;;5023536;28;39067;-76
2023/07/12 05:22:47;;;;;;;17.05;8.18;;;16.60;99.90;;;;;;5014825;28;39698;-77
2023/07/12 05:25:13;;;;;;;26.88;7.10;;;16.60;99.90;;;;;;5024296;28;38872;-78
2023/07/12 05:27:40;;;;;;;25.60;7.88;;;16.50;99.90;;;;;;5044552;28;38777;-76
2023/07/12 05:30:07;;;;;;;19.88;7.03;;;16.60;99.90;;;;;;5028313;28;36775;-76
2023/07/12 05:32:33;;;;;;;22.40;7.63;;;16.60;99.90;;;;;;5037490;28;40083;-76
2023/07/12 05:34:59;;;;;;;26.45;7.93;;;16.60;99.90;;;;;;5026593;28;39511;-77
2023/07/12 05:37:25;;;;;;;23.88;8.13;;;16.50;99.90;;;;;;5030803;28;37936;-76
2023/07/12 05:39:51;;;;;;;20.15;6.70;;;16.50;99.90;;;;;;5045637;28;38731;-77
2023/07/12 05:42:18;;;;;;;26.50;7.30;;;16.40;99.90;;;;;;5043613;28;38538;-77
2023/07/12 05:44:44;;;;;;;23.90;7.63;;;16.50;99.90;;;;;;5038128;28;37350;-76
2023/07/12 05:47:10;;;;;;;20.42;8.13;;;16.50;99.90;;;;;;5042435;28;38682;-77
2023/07/12 05:49:36;;;;;;;24.50;8.20;;;16.50;99.90;;;;;;5042103;28;37449;-77
2023/07/12 05:52:03;;;;;;;27.63;8.70;;;16.60;99.90;;;;;;5044324;28;39193;-78
2023/07/12 05:54:30;;;;;;;20.80;6.93;;;16.80;99.90;;;;;;5027018;28;39244;-77
2023/07/12 05:56:57;;;;;;;22.45;7.05;;;16.90;99.90;;;;;;5029328;28;38420;-78
2023/07/12 05:59:23;;;;;;;20.45;6.50;;;17.00;99.90;;;;;;5030805;28;36667;-77
2023/07/12 06:01:49;;;;;;;20.17;6.82;;;17.30;99.90;;;;;;5043551;28;38221;-77
2023/07/12 06:04:16;;;;;;;16.00;6.45;;;17.20;99.90;;;;;;5041757;28;38869;-78
2023/07/12 06:06:42;;;;;;;20.23;6.35;;;17.40;99.90;;;;;;5037883;28;38904;-77
2023/07/12 06:09:08;;;;;;;19.70;5.28;;;17.40;99.90;;;;;;5044624;28;37474;-78
2023/07/12 06:11:34;;;;;;;20.48;5.90;;;17.40;99.90;;;;;;5030233;28;38946;-77
2023/07/12 06:14:00;;;;;;;17.73;5.13;;;17.50;99.90;;;;;;5027693;28;38219;-78
2023/07/12 06:16:26;;;;;;;24.55;5.07;;;17.70;99.90;;;;;;5042711;28;39655;-77
2023/07/12 06:18:53;;;;;;;17.83;4.82;;;17.90;99.90;;;;;;5043463;28;36162;-78
2023/07/12 06:21:19;;;;;;;17.15;4.70;;;18.00;99.90;;;;;;5040897;28;39128;-78
2023/07/12 06:23:45;;;;;;;15.30;4.68;;;17.90;99.90;;;;;;5022815;28;39147;-77
2023/07/12 06:26:11;;;;;;;20.08;4.78;;;18.20;99.90;;;;;;5043978;28;39770;-78
2023/07/12 06:28:37;;;;;;;18.88;4.35;;;18.40;99.90;;;;;;5028597;28;37382;-78
2023/07/12 06:31:05;;;;;;;18.10;4.00;;;18.30;99.90;;;;;;5028222;28;40042;-78
2023/07/12 06:33:31;;;;;;;18.35;4.30;;;18.20;99.90;;;;;;5026292;28;38331;-77
2023/07/12 06:35:58;;;;;;;18.00;4.07;;;18.10;99.90;;;;;;5031292;28;38041;-78
2023/07/12 06:38:24;;;;;;;20.92;4.80;;;18.00;99.90;;;;;;5028201;28;37429;-78
2023/07/12 06:40:50;;;;;;;14.40;3.58;;;17.80;99.90;;;;;;5027392;28;40653;-78
2023/07/12 06:43:16;;;;;;;16.10;3.78;;;17.70;99.90;;;;;;5044023;28;39849;-78
2023/07/12 06:45:46;;;;;;;12.80;4.45;;;17.60;99.90;;;;;;5022187;28;39448;-78
2023/07/12 06:48:12;;;;;;;17.58;4.50;;;17.70;99.90;;;;;;5044558;28;37996;-78
2023/07/12 06:50:39;;;;;;;17.33;4.55;;;17.90;99.90;;;;;;5043724;28;40596;-78
2023/07/12 06:53:05;;;;;;;17.92;3.63;;;18.00;99.90;;;;;;5042759;28;39531;-78
2023/07/12 06:55:32;;;;;;;17.13;4.45;;;17.90;99.90;;;;;;5025958;28;38354;-78
2023/07/12 06:57:58;;;;;;;12.93;4.13;;;17.90;99.90;;;;;;5034609;28;37846;-77
2023/07/12 07:00:24;;;;;;;14.45;3.80;;;17.90;99.90;;;;;;5043123;28;37636;-78
2023/07/12 07:02:50;;;;;;;17.08;4.13;;;18.00;99.90;;;;;;5029863;28;36698;-78
2023/07/12 07:05:16;;;;;;;15.90;4.40;;;18.10;99.90;;;;;;5015884;28;38304;-79
2023/07/12 07:07:42;;;;;;;18.95;4.30;;;18.20;99.90;;;;;;5026478;28;36400;-78
2023/07/12 07:10:09;;;;;;;19.23;4.30;;;18.30;99.90;;;;;;5028749;28;39724;-78
2023/07/12 07:12:35;;;;;;;20.02;4.72;;;18.20;99.90;;;;;;5025666;28;38853;-78
2023/07/12 07:15:01;;;;;;;13.25;4.20;;;18.20;99.90;;;;;;5044165;28;38848;-78
2023/07/12 07:17:28;;;;;;;15.38;3.88;;;18.10;99.90;;;;;;5028889;28;36906;-79
2023/07/12 07:19:54;;;;;;;17.15;4.32;;;18.00;99.90;;;;;;5040407;28;37723;-78
2023/07/12 07:22:20;;;;;;;17.60;5.10;;;18.00;99.90;;;;;;5028056;28;38308;-78
2023/07/12 07:24:46;;;;;;;13.30;3.80;;;18.10;99.90;;;;;;5043637;28;39832;-78
2023/07/12 07:27:13;;;;;;;18.20;4.35;;;18.10;99.90;;;;;;5026717;28;36974;-78
2023/07/12 07:29:39;;;;;;;14.13;3.80;;;18.10;99.90;;;;;;5026436;28;39879;-78
2023/07/12 07:32:05;;;;;;;16.13;3.92;;;18.00;99.90;;;;;;5044455;28;39891;-78
2023/07/12 07:34:31;;;;;;;12.52;3.15;;;18.40;99.90;;;;;;5041738;28;38426;-78
2023/07/12 07:36:58;;;;;;;15.35;3.13;;;18.80;99.90;;;;;;5036210;28;38111;-78
2023/07/12 07:39:27;;;;;;;11.57;2.80;;;19.40;99.90;;;;;;5020366;28;40049;-78
2023/07/12 07:41:53;;;;;;;12.63;3.05;;;19.60;99.90;;;;;;5037439;28;40176;-78
2023/07/12 07:44:20;;;;;;;13.40;2.95;;;19.60;99.90;;;;;;5038108;28;38022;-78
2023/07/12 07:46:46;;;;;;;11.90;3.33;;;19.30;99.90;;;;;;5041910;28;36047;-79
2023/07/12 07:49:12;;;;;;;12.25;3.65;;;19.40;99.90;;;;;;5038561;28;39933;-78
2023/07/12 07:51:38;;;;;;;14.38;3.17;;;19.80;99.90;;;;;;5044148;28;37418;-79
2023/07/12 07:54:04;;;;;;;11.43;3.10;;;20.10;99.90;;;;;;5028485;28;39385;-78
2023/07/12 07:56:30;;;;;;;9.85;2.40;;;20.40;99.90;;;;;;5025029;28;37120;-78
2023/07/12 07:58:57;;;;;;;13.98;2.53;;;20.00;99.90;;;;;;5043661;28;37646;-78
2023/07/12 08:01:23;;;;;;;9.15;2.60;;;20.00;99.90;;;;;;5024958;28;37353;-77
2023/07/12 08:03:49;;;;;;;14.63;2.75;;;20.00;99.90;;;;;;5026676;28;38904;-77
2023/07/12 08:06:15;;;;;;;8.82;3.45;;;19.80;99.90;;;;;;5027359;28;36153;-78
2023/07/12 08:08:41;;;;;;;13.07;3.15;;;19.60;99.90;;;;;;5027335;28;40655;-77
2023/07/12 08:11:08;;;;;;;10.13;2.80;;;19.60;99.90;;;;;;5025332;28;38984;-78
2023/07/12 08:13:35;;;;;;;8.65;2.45;;;19.40;99.90;;;;;;5024589;28;37755;-78
2023/07/12 08:16:01;;;;;;;8.13;2.40;;;19.60;99.90;;;;;;5027066;28;36326;-77
2023/07/12 08:18:30;;;;;;;13.52;2.58;;;20.00;99.90;;;;;;5042932;28;47149;-78
2023/07/12 08:20:57;;;;;;;13.10;2.60;;;20.60;99.90;;;;;;5045334;28;38900;-78
2023/07/12 08:23:24;;;;;;;14.98;3.20;;;20.70;99.90;;;;;;5026625;28;38705;-78
2023/07/12 08:25:51;;;;;;;14.60;2.88;;;20.50;99.90;;;;;;5041767;28;39586;-78
2023/07/12 08:28:18;;;;;;;8.32;3.00;;;20.10;99.90;;;;;;5027248;28;38645;-78
2023/07/12 08:30:45;;;;;;;10.60;2.50;;;19.70;99.90;;;;;;5023448;28;39635;-78
2023/07/12 08:33:11;;;;;;;10.93;2.53;;;19.40;99.90;;;;;;5040166;28;38557;-78
2023/07/12 08:35:37;;;;;;;11.75;2.30;;;19.10;99.90;;;;;;5036999;28;38080;-78
2023/07/12 08:38:03;;;;;;;10.75;2.30;;;19.30;99.90;;;;;;5031046;28;40246;-79
2023/07/12 08:40:29;;;;;;;10.30;2.45;;;19.80;99.90;;;;;;5041287;28;39141;-78
2023/07/12 08:42:56;;;;;;;9.93;2.58;;;20.30;99.90;;;;;;5030191;28;40266;-78
2023/07/12 08:45:25;;;;;;;9.73;2.50;;;21.00;99.90;;;;;;5013702;28;37753;-79
2023/07/12 08:47:58;;;;;;;7.35;2.33;;;21.20;99.90;;;;;;5038600;28;39464;-78
2023/07/12 08:50:27;;;;;;;9.35;2.35;;;21.20;99.90;;;;;;5020973;28;39231;-78
2023/07/12 08:52:53;;;;;;;9.63;2.72;;;20.60;95.70;;;;;;5021317;28;39534;-79
2023/07/12 08:55:22;;;;;;;13.32;2.65;;;20.50;99.90;;;;;;5019859;28;38100;-79
2023/07/12 08:58:23;;;;;;;12.10;2.80;;;21.00;99.90;;;;;;5023078;28;37573;-78
2023/07/12 09:01:01;;;;;;;6.70;2.00;;;20.80;99.90;;;;;;4994084;28;48087;-79
2023/07/12 09:03:31;;;;;;;7.20;2.25;;;20.90;95.80;;;;;;5024199;28;39117;-78
2023/07/12 09:05:58;;;;;;;10.75;2.50;;;21.10;98.60;;;;;;5041766;28;38970;-79
2023/07/12 09:08:33;;;;;;;9.32;2.25;;;21.30;99.50;;;;;;5025378;28;38850;-79
2023/07/12 09:10:59;;;;;;;9.40;2.55;;;21.20;91.50;;;;;;5028743;28;38913;-79
2023/07/12 09:13:34;;;;;;;10.80;2.20;;;21.40;96.30;;;;;;5034763;28;39948;-78
2023/07/12 09:16:01;;;;;;;7.63;2.38;;;21.20;98.80;;;;;;5025646;28;36939;-79
2023/07/12 09:18:36;;;;;;;10.40;2.90;;;20.50;94.20;;;;;;5020483;28;48189;-78
2023/07/12 09:21:15;;;;;;;11.98;3.03;;;20.40;99.90;;;;;;5013365;28;38727;-79
2023/07/12 09:23:44;;;;;;;9.82;2.53;;;21.00;93.70;;;;;;5037127;28;38265;-78
2023/07/12 09:26:27;;;;;;;7.93;2.38;;;21.30;99.90;;;;;;5024707;28;39206;-78
2023/07/12 09:29:08;;;;;;;10.02;2.38;;;21.80;92.30;;;;;;5016837;28;38695;-78
2023/07/12 09:31:36;;;;;;;12.57;2.38;;;22.00;79.90;;;;;;5037838;28;47307;-78
2023/07/12 09:34:07;;;;;;;8.38;2.35;;;21.60;76.00;;;;;;5026916;28;38812;-79
2023/07/12 09:36:39;;;;;;;14.40;2.67;;;20.70;87.00;;;;;;5027073;28;36505;-78
2023/07/12 09:39:06;;;;;;;11.50;2.30;;;20.50;99.90;;;;;;5044455;28;39169;-78
2023/07/12 09:41:32;;;;;;;12.07;2.30;;;20.90;94.80;;;;;;5021887;28;39018;-78
2023/07/12 09:44:00;;;;;;;7.93;1.90;;;20.80;90.50;;;;;;5041626;28;37311;-78
2023/07/12 09:46:46;;;;;;;7.78;2.15;;;20.70;95.60;;;;;;5029946;28;47610;-78
2023/07/12 09:49:20;;;;;;;14.77;2.85;;;20.80;99.90;;;;;;5032241;28;38459;-78
2023/07/12 09:51:49;;;;;;;14.98;2.90;;;21.30;96.90;;;;;;5027011;28;38604;-78
2023/07/12 09:54:55;;;;;;;11.60;2.88;;;21.90;88.90;;;;;;5035513;28;38779;-78
2023/07/12 09:57:46;;;;;;;6.63;2.08;;;22.20;61.10;;;;;;5027401;28;36202;-79
2023/07/12 10:00:31;;;;;;;7.25;1.85;;;22.30;64.80;;;;;;5040776;28;38279;-79
2023/07/12 10:03:34;;;;;;;11.80;2.75;;;22.40;84.40;;;;;;5042346;28;49126;-78
2023/07/12 10:06:11;;;;;;;9.10;4.15;;;22.10;71.80;;;;;;5027570;28;47152;-78
2023/07/12 10:08:46;;;;;;;8.25;2.20;;;21.50;76.20;;;;;;5024890;28;46930;-78
2023/07/12 10:11:34;;;;;;;8.15;2.38;;;21.50;97.70;;;;;;5034782;28;40862;-78
2023/07/12 10:14:06;;;;;;;8.88;2.25;;;22.10;80.40;;;;;;5025201;28;38637;-79
2023/07/12 10:16:39;;;;;;;6.80;2.05;;;22.40;60.80;;;;;;5038849;28;48269;-78
2023/07/12 10:19:22;;;;;;;7.30;2.08;;;22.20;54.30;;;;;;5031617;28;38213;-78
2023/07/12 10:21:54;;;;;;;5.03;1.67;;;21.50;66.20;;;;;;5025558;28;39315;-78
2023/07/12 10:24:27;;;;;;;9.63;2.35;;;21.60;67.90;;;;;;5028163;28;39489;-78
2023/07/12 10:26:53;;;;;;;8.57;1.77;;;21.90;59.20;;;;;;5040529;28;38341;-78
2023/07/12 10:29:41;;;;;;;9.25;2.05;;;22.70;73.90;;;;;;5026362;28;38295;-78
2023/07/12 10:32:25;;;;;;;8.43;2.35;;;22.90;60.20;;;;;;5022532;28;39101;-79
2023/07/12 10:35:30;;;;;;;8.55;2.65;;;22.20;51.50;;;;;;5018471;28;37190;-78
2023/07/12 10:38:15;;;;;;;9.05;2.40;;;21.30;82.30;;;;;;5023445;28;47904;-78
2023/07/12 10:40:49;;;;;;;7.57;2.25;;;20.90;93.40;;;;;;5026998;28;48812;-78
2023/07/12 10:43:41;;;;;;;9.00;2.47;;;21.30;92.20;;;;;;5040743;28;39619;-79
2023/07/12 10:46:13;;;;;;;;;;;22.10;78.10;;;;;;5036760;28;39327;-79
2023/07/12 10:48:45;;;;;;;6.68;1.90;;;22.60;59.80;;;;;;5027459;28;39664;-78
2023/07/12 10:51:34;;;;;;;7.63;1.67;;;22.40;54.30;;;;;;5040856;28;38288;-78
2023/07/12 10:54:00;;;;;;;8.20;2.10;;;23.00;80.10;;;;;;5029945;28;38285;-78
2023/07/12 10:56:50;;;;;;;12.50;2.17;;;23.00;59.20;;;;;;5034107;28;37325;-78
2023/07/12 10:59:30;;;;;;;6.25;1.75;;;22.80;33.10;;;;;;5026560;28;38682;-78
2023/07/12 11:02:19;;;;;;;7.47;2.05;;;22.70;34.20;;;;;;5011089;28;37945;-79
2023/07/12 11:04:49;;;;;;;5.10;1.70;;;22.90;52.10;;;;;;5034179;28;47143;-78
2023/07/12 11:07:15;;;;;;;5.28;1.50;;;23.30;35.00;;;;;;5037730;28;38930;-78
2023/07/12 11:09:47;;;;;;;8.18;2.15;;;23.50;20.00;;;;;;5022672;28;38607;-78
2023/07/12 11:12:20;;;;;;;;;;;23.50;7.70;;;;;;5018693;28;36972;-79
2023/07/12 11:14:51;;;;;;;7.30;1.98;;;23.20;19.10;;;;;;5024261;28;38945;-79
2023/07/12 11:17:20;;;;;;;4.85;1.40;;;23.10;28.10;;;;;;5028935;28;38794;-79
2023/07/12 11:20:01;;;;;;;6.90;1.20;;;23.50;30.40;;;;;;5040392;28;38864;-79
2023/07/12 11:22:57;;;;;;;4.45;1.30;;;23.80;5.00;;;;;;5024934;28;37399;-78
2023/07/12 11:25:29;;;;;;;3.83;1.38;;;23.20;1.00;;;;;;5036705;28;40071;-79
2023/07/12 11:28:00;;;;;;;6.50;1.70;;;23.00;1.00;;;;;;5044377;28;39143;-78
2023/07/12 11:30:35;;;;;;;5.38;1.40;;;23.00;1.00;;;;;;5036622;28;37255;-78
2023/07/12 11:33:30;;;;;;;5.43;1.55;;;23.20;1.00;;;;;;5035687;28;38825;-78
2023/07/12 11:36:06;;;;;;;4.35;1.05;;;23.50;1.00;;;;;;5041366;28;47311;-79
2023/07/12 11:38:35;;;;;;;4.78;0.98;;;23.80;1.00;;;;;;5042798;28;47074;-79
2023/07/12 11:41:13;;;;;;;3.65;1.20;;;23.70;1.00;;;;;;5028391;28;38257;-79
2023/07/12 11:43:40;;;;;;;6.22;1.30;;;23.50;1.00;;;;;;5042875;28;47315;-78
2023/07/12 11:46:16;;;;;;;9.57;1.58;;;22.70;1.00;;;;;;5035764;28;39780;-79
2023/07/12 11:48:50;;;;;;;6.60;1.83;;;23.10;1.00;;;;;;5028976;28;37724;-79
2023/07/12 11:51:20;;;;;;;7.88;1.65;;;23.70;1.00;;;;;;5025030;28;38863;-79
2023/07/12 11:53:52;;;;;;;4.30;1.23;;;23.80;1.00;;;;;;5041349;28;37654;-78
2023/07/12 11:56:18;;;;;;;2.28;0.90;;;23.70;1.00;;;;;;5024282;28;39197;-79
2023/07/12 11:58:44;;;;;;;18.05;1.80;;;23.50;1.00;;;;;;5039303;28;37332;-78
2023/07/12 12:01:19;;;;;;;3.92;0.93;;;23.30;1.00;;;;;;5012802;28;37948;-79
2023/07/12 12:03:48;;;;;;;4.20;1.27;;;23.00;1.00;;;;;;5035185;28;37088;-78
2023/07/12 12:06:15;;;;;;;9.85;1.55;;;22.90;1.00;;;;;;5025391;28;38925;-79
2023/07/12 12:08:52;;;;;;;5.35;1.20;;;23.10;1.00;;;;;;5039842;28;38805;-79
2023/07/12 12:11:18;;;;;;;7.95;1.83;;;23.50;1.00;;;;;;5022342;28;37291;-79
2023/07/12 12:13:53;;;;;;;5.43;1.20;;;23.80;1.00;;;;;;5024370;28;38826;-79
2023/07/12 12:16:29;;;;;;;10.93;1.73;;;24.00;1.00;;;;;;5040618;28;40658;-79
2023/07/12 12:19:07;;;;;;;2.22;0.85;;;23.90;1.00;;;;;;5028979;28;38803;-79
2023/07/12 12:21:33;;;;;;;5.50;1.10;;;23.70;1.00;;;;;;5026258;28;47989;-79
2023/07/12 12:24:14;;;;;;;10.00;1.65;;;23.40;1.00;;;;;;5024837;28;37907;-79
2023/07/12 12:26:42;;;;;;;12.75;2.33;;;23.60;1.00;;;;;;5026358;28;46032;-80
2023/07/12 12:29:18;;;;;;;4.50;1.65;;;24.20;1.00;;;;;;5028298;28;40170;-79
2023/07/12 12:31:56;;;;;;;10.65;1.45;;;24.40;1.00;;;;;;5043270;28;37442;-80
2023/07/12 12:34:33;;;;;;;5.63;1.35;;;24.10;1.00;;;;;;5026744;28;37286;-79
2023/07/12 12:37:07;;;;;;;5.43;1.33;;;24.10;1.00;;;;;;5042430;28;39867;-80
2023/07/12 12:39:35;;;;;;;22.77;3.30;;;24.10;1.00;;;;;;5023605;28;48625;-79
2023/07/12 12:42:21;;;;;;;8.82;2.10;;;24.00;1.00;;;;;;5041189;28;39918;-80
2023/07/12 12:44:47;;;;;;;20.63;2.90;;;24.10;20.70;;;;;;5031487;28;46919;-80
2023/07/12 12:47:16;;;;;;;7.40;1.58;;;23.40;1.00;;;;;;5026442;28;38523;-79
2023/07/12 12:49:43;;;;;;;11.02;1.23;;;23.70;1.00;;;;;;5025382;28;38281;-80
2023/07/12 12:52:34;;;;;;;4.38;0.90;;;24.30;99.90;;;;;;5022159;28;39059;-79
2023/07/12 12:55:06;;;;;;;8.57;0.95;;;24.30;99.90;;;;;;5039567;28;37858;-79
2023/07/12 12:57:34;;;;;;;4.68;0.70;;;24.20;1.00;;;;;;5025197;28;47834;-79